Time;durP1;ratioP1;P1;durP2;ratioP2;P2;SDS_P1;SDS_P2;PMS_P1;PMS_P2;Temp;Humidity;BMP_temperature;BMP_pressure;BME280_temperature;BME280_humidity;BME280_pressure;Samples;Min_cycle;Max_cycle;Signal;HPM_P1;HPM_P2
2022/10/01 00:01:58;;;;;;;9.63;8.43;;;7.90;99.90;;;6.54;100.00;100527.97;4937376;29;20031;-83
2022/10/01 00:04:28;;;;;;;12.50;8.43;;;7.90;99.90;;;6.55;100.00;100529.72;4938001;29;20499;-82
2022/10/01 00:06:59;;;;;;;13.73;8.80;;;7.90;99.90;;;6.54;100.00;100520.13;4925098;29;20058;-83
2022/10/01 00:09:25;;;;;;;14.05;9.32;;;7.90;99.90;;;6.50;100.00;100521.13;4942413;29;20110;-82
2022/10/01 00:11:52;;;;;;;12.00;9.18;;;7.90;99.90;;;6.49;100.00;100516.81;4941453;29;20047;-83
2022/10/01 00:14:23;;;;;;;11.90;8.85;;;7.90;99.90;;;6.46;100.00;100512.56;4925790;29;20399;-83
2022/10/01 00:16:49;;;;;;;10.98;8.80;;;7.80;99.90;;;6.45;100.00;100512.59;4943579;28;20019;-82
2022/10/01 00:19:14;;;;;;;11.63;8.93;;;7.80;99.90;;;6.42;100.00;100510.94;4959062;28;20040;-82
2022/10/01 00:21:40;;;;;;;12.35;9.30;;;7.80;99.90;;;6.39;100.00;100505.78;4957989;28;20269;-83
2022/10/01 00:24:06;;;;;;;19.95;9.20;;;7.70;99.90;;;6.36;100.00;100501.53;4958626;28;20093;-83
2022/10/01 00:26:40;;;;;;;12.40;9.55;;;7.70;99.90;;;6.32;100.00;100499.06;4941641;29;20035;-83
2022/10/01 00:29:12;;;;;;;15.77;9.57;;;7.70;99.90;;;6.33;100.00;100491.19;4957586;28;20547;-83
2022/10/01 00:31:41;;;;;;;13.25;9.52;;;7.70;99.90;;;6.31;100.00;100493.00;4941749;29;20454;-83
2022/10/01 00:34:10;;;;;;;14.77;9.68;;;7.70;99.90;;;6.27;100.00;100482.69;4943823;29;20050;-83
2022/10/01 00:36:36;;;;;;;14.05;9.68;;;7.60;99.90;;;6.27;100.00;100485.31;4944590;29;20023;-83
2022/10/01 00:39:02;;;;;;;13.68;10.05;;;7.60;99.90;;;6.25;100.00;100479.25;4954222;28;20035;-81
2022/10/01 00:41:35;;;;;;;12.48;10.27;;;7.60;99.90;;;6.24;100.00;100470.56;4958219;28;20039;-84
2022/10/01 00:44:34;;;;;;;13.60;10.05;;;7.60;99.90;;;6.20;100.00;100470.69;4943171;29;20031;-83
2022/10/01 00:47:30;;;;;;;12.75;9.73;;;7.60;99.90;;;6.15;100.00;100466.50;4919618;29;20043;-84
2022/10/01 00:50:30;;;;;;;14.82;10.45;;;7.50;99.90;;;6.13;100.00;100462.19;4956242;29;20118;-82
2022/10/01 00:53:05;;;;;;;19.13;10.30;;;7.60;99.90;;;6.14;100.00;100459.53;4942838;28;20110;-82
2022/10/01 00:55:36;;;;;;;14.63;10.60;;;7.50;99.90;;;6.16;100.00;100451.66;4935407;28;20764;-83
2022/10/01 00:58:11;;;;;;;14.05;9.77;;;7.60;99.90;;;6.17;100.00;100458.59;4944906;28;20042;-82
2022/10/01 01:00:37;;;;;;;13.98;9.70;;;7.60;99.90;;;6.21;100.00;100460.19;4927190;29;20035;-82
2022/10/01 01:03:04;;;;;;;14.70;10.00;;;7.60;99.90;;;6.21;100.00;100465.44;4940764;29;20032;-82
2022/10/01 01:05:38;;;;;;;21.25;10.77;;;7.60;99.90;;;6.20;100.00;100462.84;4940898;29;20069;-83
2022/10/01 01:08:05;;;;;;;13.85;10.05;;;7.60;99.90;;;6.21;100.00;100464.56;4927000;28;20034;-82
2022/10/01 01:10:48;;;;;;;16.00;9.32;;;7.60;99.90;;;6.22;100.00;100454.09;4940983;29;20516;-82
2022/10/01 01:13:37;;;;;;;13.27;10.02;;;7.60;99.90;;;6.23;100.00;100450.53;4970087;23;20436;-81
2022/10/01 01:16:15;;;;;;;13.38;9.70;;;7.60;99.90;;;6.21;100.00;100447.13;4973704;28;20077;-80
2022/10/01 01:18:59;;;;;;;14.15;9.45;;;7.60;99.90;;;6.24;100.00;100449.66;4987949;28;20392;-81
2022/10/01 01:21:41;;;;;;;12.40;9.82;;;7.60;99.90;;;6.22;100.00;100447.97;4973249;28;20039;-80
2022/10/01 01:24:15;;;;;;;17.70;10.52;;;7.60;99.90;;;6.17;100.00;100445.50;4956427;28;20067;-82
2022/10/01 01:27:15;;;;;;;17.73;10.07;;;7.60;99.90;;;6.19;100.00;100448.94;4952776;28;20043;-82
2022/10/01 01:30:15;;;;;;;13.85;9.68;;;7.60;99.90;;;6.20;100.00;100439.31;4959566;28;20452;-81
2022/10/01 01:33:04;;;;;;;14.55;10.00;;;7.50;99.90;;;6.16;100.00;100433.38;4954678;28;20086;-82
2022/10/01 01:35:48;;;;;;;17.65;9.95;;;7.50;99.90;;;6.16;100.00;100431.59;4938866;28;20031;-82
2022/10/01 01:38:23;;;;;;;17.08;9.73;;;7.50;99.90;;;6.13;100.00;100431.72;4937854;29;20514;-80
2022/10/01 01:40:54;;;;;;;16.25;10.52;;;7.50;99.90;;;6.08;100.00;100428.38;4946041;28;20484;-82
2022/10/01 01:43:34;;;;;;;16.48;11.10;;;7.40;99.90;;;6.01;100.00;100420.81;4940900;29;20078;-80
2022/10/01 01:46:04;;;;;;;14.98;10.75;;;7.40;99.90;;;5.92;100.00;100421.91;4942886;28;20045;-81
2022/10/01 01:48:35;;;;;;;17.63;10.45;;;7.30;99.90;;;5.85;100.00;100416.03;4943434;29;20039;-81
2022/10/01 01:51:34;;;;;;;14.52;10.77;;;7.30;99.90;;;5.86;100.00;100415.13;4942410;28;20035;-82
2022/10/01 01:54:00;;;;;;;19.63;11.23;;;7.30;99.90;;;5.87;100.00;100418.56;4955091;28;21242;-81
2022/10/01 01:56:27;;;;;;;22.52;10.73;;;7.30;99.90;;;5.90;100.00;100411.50;4939079;29;20027;-81
2022/10/01 01:58:56;;;;;;;14.93;10.30;;;7.30;99.90;;;5.85;100.00;100410.81;4946660;28;20031;-82
2022/10/01 02:01:40;;;;;;;18.95;10.38;;;7.30;99.90;;;5.86;100.00;100415.13;4953314;28;20484;-82
2022/10/01 02:04:45;;;;;;;14.90;10.98;;;7.20;99.90;;;5.84;100.00;100409.09;4943734;28;20543;-82
2022/10/01 02:07:32;;;;;;;15.38;10.80;;;7.20;99.90;;;5.80;100.00;100397.03;4943002;28;20035;-82
2022/10/01 02:10:17;;;;;;;18.27;11.60;;;7.20;99.90;;;5.81;100.00;100397.88;4955686;28;20519;-81
2022/10/01 02:12:49;;;;;;;19.00;10.95;;;7.20;99.90;;;5.81;100.00;100398.75;4952350;28;20135;-81
2022/10/01 02:15:46;;;;;;;18.42;10.45;;;7.20;99.90;;;5.85;100.00;100402.09;4951821;28;20551;-80
2022/10/01 02:18:46;;;;;;;13.98;10.52;;;7.20;99.90;;;5.86;100.00;100394.22;4951819;28;20686;-80
2022/10/01 02:21:39;;;;;;;20.77;10.75;;;7.20;99.90;;;5.87;100.00;100395.91;4954137;28;20123;-81
2022/10/01 02:24:38;;;;;;;18.67;10.73;;;7.30;99.90;;;5.92;100.00;100401.00;4937303;29;20035;-80
2022/10/01 02:27:25;;;;;;;17.13;10.52;;;7.30;99.90;;;5.95;100.00;100388.72;4952211;28;20039;-80
2022/10/01 02:29:53;;;;;;;14.45;9.70;;;7.30;99.90;;;5.93;100.00;100390.50;4924110;28;20155;-82
2022/10/01 02:32:20;;;;;;;15.73;9.40;;;7.30;99.90;;;5.90;100.00;100392.38;4937310;29;20512;-82
2022/10/01 02:34:49;;;;;;;15.95;10.13;;;7.30;99.90;;;5.95;100.00;100390.47;4936419;28;20106;-80
2022/10/01 02:37:20;;;;;;;16.98;10.25;;;7.40;99.90;;;5.99;100.00;100391.25;4935487;29;20031;-81
2022/10/01 02:39:49;;;;;;;14.77;10.25;;;7.40;99.90;;;5.95;100.00;100387.88;4943792;28;20518;-81
2022/10/01 02:42:21;;;;;;;17.42;9.95;;;7.40;99.90;;;5.97;100.00;100388.66;4938227;28;20373;-80
2022/10/01 02:44:50;;;;;;;17.08;10.05;;;7.40;99.90;;;5.97;100.00;100387.81;4943989;28;20034;-82
2022/10/01 02:47:43;;;;;;;19.60;10.40;;;7.40;99.90;;;5.99;100.00;100393.84;4937931;28;20026;-82
2022/10/01 02:50:11;;;;;;;13.68;9.82;;;7.40;99.90;;;5.99;100.00;100386.00;4952795;28;20034;-81
2022/10/01 02:52:51;;;;;;;18.98;10.73;;;7.40;99.90;;;6.01;100.00;100377.22;4934676;29;20043;-82
2022/10/01 02:55:34;;;;;;;13.15;9.23;;;7.40;99.90;;;6.01;100.00;100378.97;4939672;28;20066;-82
2022/10/01 02:58:00;;;;;;;16.67;9.95;;;7.40;99.90;;;6.02;100.00;100380.69;4958138;28;20118;-82
2022/10/01 03:00:28;;;;;;;16.05;9.63;;;7.40;99.90;;;6.08;100.00;100370.03;4934749;28;20055;-81
2022/10/01 03:02:54;;;;;;;15.65;9.27;;;7.50;99.90;;;6.09;100.00;100367.38;4919301;28;20035;-82
2022/10/01 03:05:20;;;;;;;14.25;9.30;;;7.50;99.90;;;6.10;100.00;100352.53;4936279;28;20046;-82
2022/10/01 03:07:47;;;;;;;19.25;9.43;;;7.50;99.90;;;6.14;100.00;100351.53;4938092;28;20031;-82
2022/10/01 03:10:15;;;;;;;14.13;9.02;;;7.50;99.90;;;6.16;100.00;100352.31;4935934;29;20054;-81
2022/10/01 03:12:42;;;;;;;12.57;8.80;;;7.50;99.90;;;6.18;100.00;100347.91;4936190;28;20035;-82
2022/10/01 03:15:13;;;;;;;17.85;9.20;;;;;;;6.16;100.00;100344.47;4933148;29;20101;-82
2022/10/01 03:17:39;;;;;;;18.90;9.35;;;7.50;99.90;;;6.20;100.00;100351.31;4952334;28;20038;-82
2022/10/01 03:20:06;;;;;;;13.98;9.25;;;7.60;99.90;;;6.16;100.00;100341.88;4937123;28;20085;-80
2022/10/01 03:22:32;;;;;;;16.38;9.85;;;7.50;99.90;;;6.15;100.00;100345.38;4937355;29;20035;-82
2022/10/01 03:25:01;;;;;;;22.20;9.20;;;7.50;99.90;;;6.13;100.00;100344.56;4935549;28;20024;-82
2022/10/01 03:27:26;;;;;;;18.45;9.05;;;7.60;99.90;;;6.18;100.00;100340.06;4919515;29;20090;-81
2022/10/01 03:29:52;;;;;;;17.02;9.73;;;7.60;99.90;;;6.16;100.00;100339.25;4936825;28;20500;-80
2022/10/01 03:32:19;;;;;;;16.40;9.50;;;7.50;99.90;;;6.15;100.00;100338.41;4935334;28;20034;-82
2022/10/01 03:34:45;;;;;;;18.92;9.32;;;7.60;99.90;;;6.16;100.00;100328.78;4960596;28;20031;-80
2022/10/01 03:37:10;;;;;;;17.02;9.50;;;7.50;99.90;;;6.17;100.00;100340.94;4934558;28;20484;-81
2022/10/01 03:39:36;;;;;;;18.77;8.80;;;7.50;99.90;;;6.20;100.00;100332.13;4936752;28;20170;-82
2022/10/01 03:42:05;;;;;;;16.83;9.48;;;7.60;99.90;;;6.18;100.00;100326.09;4956573;28;20067;-82
2022/10/01 03:44:32;;;;;;;15.35;9.57;;;7.50;99.90;;;6.17;100.00;100327.88;4949263;28;20032;-82
2022/10/01 03:46:58;;;;;;;14.80;9.20;;;7.60;99.90;;;6.18;100.00;100323.50;4939557;29;20031;-82
2022/10/01 03:49:24;;;;;;;15.80;9.90;;;7.60;99.90;;;6.18;100.00;100321.75;4954329;28;20162;-81
2022/10/01 03:51:49;;;;;;;19.00;9.93;;;7.60;99.90;;;6.20;100.00;100311.22;4939621;28;20494;-82
2022/10/01 03:54:16;;;;;;;16.83;9.07;;;7.60;99.90;;;6.20;100.00;100309.47;4923725;29;20035;-80
2022/10/01 03:56:45;;;;;;;15.23;9.05;;;7.60;99.90;;;6.18;100.00;100311.28;4925064;28;20373;-81
2022/10/01 03:59:11;;;;;;;17.50;10.27;;;7.60;99.90;;;6.20;100.00;100303.38;4954787;28;20023;-82
2022/10/01 04:01:37;;;;;;;18.42;9.35;;;7.60;99.90;;;6.22;100.00;100307.66;4937877;28;20042;-80
2022/10/01 04:04:05;;;;;;;20.13;10.07;;;7.60;99.90;;;6.24;100.00;100303.25;4923586;28;20435;-81
2022/10/01 04:06:31;;;;;;;18.80;9.95;;;7.70;99.90;;;6.28;100.00;100296.13;4940391;29;20062;-82
2022/10/01 04:08:56;;;;;;;17.33;10.60;;;7.70;99.90;;;6.29;100.00;100292.63;4940053;28;20110;-82
2022/10/01 04:11:30;;;;;;;17.10;10.07;;;7.70;99.90;;;6.29;100.00;100293.47;4938176;29;20027;-80
2022/10/01 04:13:59;;;;;;;15.48;9.68;;;7.70;99.90;;;6.31;100.00;100286.41;4923059;28;20054;-80
2022/10/01 04:16:24;;;;;;;19.63;10.20;;;7.70;99.90;;;6.33;100.00;100278.53;4939135;28;20117;-81
2022/10/01 04:18:50;;;;;;;15.35;9.57;;;7.70;99.90;;;6.34;100.00;100267.97;4939624;29;20404;-82
2022/10/01 04:21:16;;;;;;;15.90;9.77;;;7.70;99.90;;;6.40;100.00;100268.69;4939610;28;20134;-80
2022/10/01 04:23:45;;;;;;;19.02;9.80;;;7.70;99.90;;;6.42;100.00;100264.25;4922132;29;20039;-81
2022/10/01 04:26:10;;;;;;;21.20;9.35;;;7.80;99.90;;;6.43;100.00;100260.72;4937330;28;20031;-82
2022/10/01 04:28:36;;;;;;;15.88;9.82;;;7.80;99.90;;;6.46;100.00;100252.78;4955396;28;20610;-82
2022/10/01 04:33:49;;;;;;;17.95;10.23;;;7.80;99.90;;;6.45;100.00;100256.28;4940789;28;20124;-82
2022/10/01 04:36:15;;;;;;;13.40;9.75;;;7.80;99.90;;;6.45;100.00;100258.91;4938448;29;20031;-79
2022/10/01 04:38:41;;;;;;;16.65;10.07;;;7.80;99.90;;;6.49;100.00;100257.88;4920867;28;20168;-81
2022/10/01 04:41:08;;;;;;;15.05;9.00;;;7.90;99.90;;;6.51;100.00;100258.69;4939681;29;20080;-80
2022/10/01 04:43:34;;;;;;;14.45;9.77;;;7.90;99.90;;;6.53;100.00;100256.88;4940202;28;20023;-80
2022/10/01 04:46:00;;;;;;;16.77;9.60;;;7.90;99.90;;;6.56;100.00;100261.97;4938470;28;20412;-82
2022/10/01 04:48:34;;;;;;;17.15;10.00;;;7.90;99.90;;;6.56;100.00;100251.50;4937810;29;20031;-80
2022/10/01 04:51:00;;;;;;;15.63;10.60;;;8.00;99.90;;;6.60;100.00;100255.72;4940329;28;20118;-82
2022/10/01 04:53:25;;;;;;;15.85;9.63;;;8.00;99.90;;;6.62;100.00;100253.03;4939437;28;20465;-81
2022/10/01 04:55:51;;;;;;;19.35;10.45;;;8.00;99.90;;;6.67;100.00;100254.56;4940278;28;20520;-81
2022/10/01 04:58:17;;;;;;;16.70;9.98;;;8.10;99.90;;;6.70;100.00;100251.00;4922883;29;20051;-80
2022/10/01 05:00:50;;;;;;;17.10;10.02;;;8.10;99.90;;;6.76;100.00;100251.63;4937730;29;20043;-82
2022/10/01 05:03:17;;;;;;;12.95;9.13;;;8.10;99.90;;;6.79;100.00;100248.03;4939020;28;20040;-81
2022/10/01 05:05:43;;;;;;;20.70;10.00;;;8.20;99.90;;;6.81;100.00;100246.19;4939540;29;20089;-81
2022/10/01 05:08:09;;;;;;;16.70;10.48;;;8.20;99.90;;;6.85;100.00;100232.09;4939231;28;20118;-83
2022/10/01 05:10:44;;;;;;;22.77;10.63;;;8.20;99.90;;;6.88;100.00;100231.09;4936596;29;20038;-82
2022/10/01 05:13:09;;;;;;;15.55;10.65;;;8.20;99.90;;;6.90;100.00;100234.53;4937523;28;20039;-82
2022/10/01 05:15:35;;;;;;;16.30;10.18;;;8.30;99.90;;;6.94;100.00;100225.63;4940238;28;20527;-81
2022/10/01 05:18:01;;;;;;;17.48;9.85;;;8.30;99.90;;;6.96;100.00;100235.13;4939535;29;20031;-82
2022/10/01 05:20:36;;;;;;;17.95;9.90;;;8.30;99.90;;;6.99;100.00;100229.75;4938892;28;20031;-81
2022/10/01 05:23:02;;;;;;;14.45;10.10;;;8.30;99.90;;;7.01;100.00;100232.31;4958709;28;20046;-82
2022/10/01 05:25:28;;;;;;;17.65;10.25;;;8.40;99.90;;;7.05;100.00;100238.31;4952588;28;20516;-83
2022/10/01 05:28:03;;;;;;;15.73;10.30;;;8.40;99.90;;;7.07;100.00;100229.47;4939634;28;20031;-81
2022/10/01 05:30:30;;;;;;;19.10;10.45;;;8.40;99.90;;;7.11;100.00;100223.19;4960784;28;20031;-83
2022/10/01 05:33:03;;;;;;;16.85;10.13;;;8.40;99.90;;;7.14;100.00;100224.84;4946403;28;20035;-80
2022/10/01 05:35:30;;;;;;;16.17;10.13;;;8.40;99.90;;;7.12;100.00;100221.41;4943460;28;20027;-81
2022/10/01 05:37:58;;;;;;;13.63;9.63;;;8.50;99.90;;;7.15;100.00;100224.78;4947559;28;20034;-81
2022/10/01 05:40:34;;;;;;;19.08;10.73;;;8.50;99.90;;;7.16;100.00;100226.47;4958327;28;20030;-82
2022/10/01 05:43:01;;;;;;;23.63;10.97;;;8.50;99.90;;;7.14;100.00;100220.44;4939613;28;20031;-82
2022/10/01 05:45:29;;;;;;;21.48;10.55;;;8.50;99.90;;;7.12;100.00;100211.78;4938141;29;20046;-82
2022/10/01 05:47:59;;;;;;;17.13;11.13;;;8.50;99.90;;;7.16;100.00;100216.00;4945051;28;20027;-81
2022/10/01 05:50:26;;;;;;;17.48;11.38;;;8.50;99.90;;;7.14;100.00;100211.75;4937386;28;20398;-81
2022/10/01 05:52:54;;;;;;;20.08;11.65;;;8.50;99.90;;;7.16;100.00;100210.75;4956103;28;20035;-81
2022/10/01 05:55:21;;;;;;;17.17;11.50;;;8.50;99.90;;;7.17;100.00;100201.13;4953717;28;20423;-83
2022/10/01 05:58:00;;;;;;;22.60;11.60;;;8.60;99.90;;;7.22;100.00;100200.97;4937194;29;20028;-82
2022/10/01 06:00:27;;;;;;;24.35;11.40;;;8.60;99.90;;;7.27;100.00;100202.47;4918783;28;20031;-81
2022/10/01 06:02:55;;;;;;;18.45;11.70;;;8.60;99.90;;;7.32;100.00;100197.91;4939142;28;20523;-82
2022/10/01 06:05:23;;;;;;;17.92;11.57;;;;;;;7.44;100.00;100188.66;4938580;28;20042;-83
2022/10/01 06:07:50;;;;;;;16.77;11.80;;;8.70;99.90;;;7.50;100.00;100179.72;4954870;28;20031;-83
2022/10/01 06:10:17;;;;;;;19.73;12.55;;;8.80;99.90;;;7.58;100.00;100182.84;4937515;29;20027;-83
2022/10/01 06:12:43;;;;;;;19.95;11.32;;;8.90;99.90;;;7.70;100.00;100184.09;4936834;28;20031;-82
2022/10/01 06:15:10;;;;;;;18.80;11.73;;;8.90;99.90;;;7.81;100.00;100184.47;4939684;29;20038;-83
2022/10/01 06:17:43;;;;;;;19.23;11.30;;;9.00;99.90;;;7.97;100.00;100182.88;4948260;28;20079;-82
2022/10/01 06:20:11;;;;;;;20.10;10.55;;;9.20;99.90;;;8.56;100.00;100181.09;4936856;28;20028;-83
2022/10/01 06:22:46;;;;;;;21.50;11.32;;;9.40;99.90;;;9.35;99.19;100175.53;4944169;28;20095;-83
2022/10/01 06:25:14;;;;;;;18.70;10.35;;;9.60;99.90;;;9.17;96.15;100176.44;4949273;28;20031;-81
2022/10/01 06:27:40;;;;;;;16.45;10.57;;;9.80;99.90;;;8.96;96.39;100167.81;4956799;28;20035;-79
2022/10/01 06:30:15;;;;;;;18.17;9.80;;;9.90;99.90;;;8.94;97.31;100160.06;4938748;28;20551;-83
2022/10/01 06:32:41;;;;;;;17.75;10.65;;;10.00;99.90;;;9.03;97.01;100161.38;4943985;28;20032;-83
2022/10/01 06:35:07;;;;;;;15.02;10.60;;;10.10;99.90;;;9.10;97.12;100157.50;4941225;28;20137;-81
2022/10/01 06:37:41;;;;;;;14.63;10.45;;;10.20;99.90;;;9.31;96.81;100162.59;4957931;28;20035;-82
2022/10/01 06:40:08;;;;;;;14.38;10.23;;;10.30;99.90;;;9.32;96.23;100151.19;4923749;28;20079;-83
2022/10/01 06:42:34;;;;;;;12.45;9.32;;;10.40;99.90;;;9.61;95.68;100150.56;4937461;28;20540;-81
2022/10/01 06:44:59;;;;;;;17.75;9.70;;;10.60;99.90;;;10.17;93.55;100147.59;4938283;29;20027;-83
2022/10/01 06:47:25;;;;;;;14.05;9.50;;;10.70;99.90;;;10.13;91.87;100144.31;4956752;28;20023;-81
2022/10/01 06:49:51;;;;;;;16.13;10.30;;;10.90;99.90;;;10.14;91.73;100137.25;4918099;29;20467;-82
2022/10/01 06:55:01;;;;;;;14.73;9.73;;;11.30;99.90;;;11.37;86.40;100131.19;4939366;28;21324;-83
2022/10/01 06:57:28;;;;;;;17.77;9.32;;;11.50;99.90;;;10.88;86.50;100124.38;4938244;29;20047;-82
2022/10/01 06:59:53;;;;;;;18.60;9.77;;;11.60;99.90;;;10.64;87.88;100121.31;4939199;28;20058;-80
2022/10/01 07:02:28;;;;;;;18.05;9.70;;;11.50;99.90;;;10.44;88.43;100113.72;4938039;29;20130;-82
2022/10/01 07:05:00;;;;;;;20.15;10.13;;;11.50;99.90;;;10.40;89.61;100110.41;4922529;28;20038;-82
2022/10/01 07:07:34;;;;;;;15.90;9.68;;;11.50;99.90;;;10.29;90.00;100107.50;4958932;28;20488;-82
2022/10/01 07:10:03;;;;;;;12.68;8.68;;;11.40;99.90;;;10.16;90.94;100109.09;4939812;28;20035;-82
2022/10/01 07:12:28;;;;;;;14.40;9.70;;;11.40;99.90;;;10.15;91.66;100103.00;4939627;29;20066;-82
2022/10/01 07:14:54;;;;;;;14.77;9.07;;;11.40;99.90;;;10.26;92.12;100094.50;4943202;28;20082;-81
2022/10/01 07:17:23;;;;;;;16.90;9.40;;;11.40;99.90;;;10.37;91.63;100101.84;4936102;28;20039;-82
2022/10/01 07:19:49;;;;;;;21.15;10.20;;;11.50;99.90;;;10.42;91.28;100094.53;4944149;29;20043;-81
2022/10/01 07:22:16;;;;;;;14.48;9.73;;;11.50;99.90;;;10.45;91.39;100092.59;4929987;28;20150;-78
2022/10/01 07:24:42;;;;;;;13.55;9.23;;;11.60;99.90;;;10.49;91.13;100100.28;4960631;28;20027;-77
2022/10/01 07:27:08;;;;;;;17.35;8.85;;;11.60;99.90;;;10.57;90.79;100087.56;4944534;29;20045;-78
2022/10/01 07:29:34;;;;;;;23.50;9.57;;;11.60;99.90;;;10.58;90.71;100089.22;4943871;28;20051;-78
2022/10/01 07:32:08;;;;;;;13.82;8.20;;;11.60;99.90;;;10.58;90.74;100076.94;4943572;28;20444;-82
2022/10/01 07:34:37;;;;;;;15.52;8.75;;;11.60;99.90;;;10.53;90.76;100073.69;4963358;28;20039;-84
2022/10/01 07:37:05;;;;;;;14.23;8.93;;;11.60;99.90;;;10.56;90.72;100075.31;4959770;28;20031;-82
2022/10/01 07:39:35;;;;;;;15.93;9.82;;;11.70;99.90;;;10.57;90.99;100071.75;4946608;28;20027;-83
2022/10/01 07:42:01;;;;;;;13.68;9.10;;;11.70;99.90;;;10.60;91.38;100066.31;4930119;29;20031;-82
2022/10/01 07:44:28;;;;;;;14.35;9.15;;;11.70;99.90;;;10.64;91.43;100070.47;4959057;28;20029;-84
2022/10/01 07:46:58;;;;;;;15.68;9.00;;;11.70;99.90;;;10.72;90.91;100067.41;4951823;28;20035;-85
2022/10/01 07:49:24;;;;;;;18.08;8.60;;;11.80;99.90;;;10.77;90.85;100058.28;4938046;29;20032;-84
2022/10/01 07:51:52;;;;;;;12.88;7.90;;;11.80;99.90;;;10.82;90.85;100068.53;4938455;28;20031;-86
2022/10/01 07:54:19;;;;;;;14.73;8.45;;;11.90;99.90;;;10.89;90.52;100056.72;4950265;28;20030;-86
2022/10/01 07:56:44;;;;;;;13.15;8.60;;;11.90;99.90;;;10.99;89.99;100062.28;4947637;29;20034;-85
2022/10/01 07:59:18;;;;;;;15.02;8.25;;;12.00;99.90;;;11.05;89.92;100060.16;4934176;28;20019;-85
2022/10/01 08:01:50;;;;;;;18.80;8.10;;;;;;;11.11;89.25;100052.84;4943831;28;20031;-86
2022/10/01 08:07:10;;;;;;;14.43;7.28;;;12.20;99.90;;;11.24;88.45;100041.47;4987551;23;20049;-79
2022/10/01 08:09:38;;;;;;;14.93;8.13;;;12.30;99.90;;;11.31;88.66;100039.28;4981215;28;20675;-79
2022/10/01 08:12:04;;;;;;;12.82;7.45;;;12.30;99.90;;;11.39;87.85;100033.56;4980151;28;20026;-80
2022/10/01 08:14:30;;;;;;;11.38;7.80;;;12.40;99.90;;;11.53;87.55;100033.56;4955939;28;20529;-81
2022/10/01 08:16:56;;;;;;;13.43;7.60;;;12.60;99.90;;;11.76;86.91;100026.03;4980784;28;20294;-79
2022/10/01 08:19:23;;;;;;;12.65;7.15;;;12.70;99.90;;;11.97;86.41;100026.50;4945211;28;20031;-79
2022/10/01 08:21:49;;;;;;;10.57;6.80;;;12.90;99.90;;;12.19;85.15;100025.97;4983275;28;20030;-80
2022/10/01 08:24:15;;;;;;;11.23;6.85;;;13.10;99.90;;;12.31;84.45;100019.91;4980218;28;20057;-79
2022/10/01 08:26:40;;;;;;;10.80;6.53;;;13.20;99.90;;;12.38;83.17;100013.25;4975586;28;20042;-80
2022/10/01 08:29:09;;;;;;;11.45;6.88;;;13.30;99.90;;;12.33;82.30;100020.63;4960395;28;20461;-81
2022/10/01 08:31:34;;;;;;;11.15;6.10;;;13.30;99.90;;;12.45;83.30;100014.56;4974740;28;20043;-80
2022/10/01 08:34:00;;;;;;;13.50;6.20;;;13.40;99.90;;;12.48;82.43;100011.72;4980727;28;20199;-81
2022/10/01 08:36:26;;;;;;;11.73;6.40;;;13.50;99.90;;;12.62;82.02;100005.50;4953095;28;20066;-80
2022/10/01 08:38:52;;;;;;;13.45;6.20;;;13.60;99.90;;;12.76;80.89;99998.47;4976374;28;20223;-81
2022/10/01 08:41:43;;;;;;;9.30;6.70;;;13.60;99.90;;;12.67;81.08;100000.75;4975624;28;20038;-80
2022/10/01 08:44:20;;;;;;;13.35;6.82;;;13.60;99.90;;;12.64;81.51;100000.13;4979006;28;20041;-80
2022/10/01 08:46:48;;;;;;;12.65;6.30;;;13.60;99.90;;;12.68;80.90;100001.63;4963368;28;20198;-80
2022/10/01 08:49:22;;;;;;;12.05;6.25;;;13.70;99.90;;;12.69;80.90;99998.88;4970489;28;20035;-79
2022/10/01 08:52:22;;;;;;;13.88;5.88;;;13.60;99.90;;;12.48;80.83;99990.59;4959134;28;20023;-80
2022/10/01 08:55:04;;;;;;;10.52;5.88;;;13.60;99.90;;;12.54;81.04;99993.78;4936950;28;20051;-80
2022/10/01 08:57:40;;;;;;;14.35;6.72;;;13.60;99.90;;;12.59;81.29;99987.25;4980279;28;20037;-80
2022/10/01 09:00:16;;;;;;;11.98;6.15;;;13.60;99.90;;;12.66;80.57;99990.31;4977300;28;20031;-80
2022/10/01 09:02:44;;;;;;;9.38;5.90;;;13.70;99.90;;;12.72;80.42;99976.69;4952399;28;20042;-80
2022/10/01 09:05:56;;;;;;;15.05;6.05;;;13.70;99.90;;;12.80;80.09;99974.38;4957049;28;20043;-80
2022/10/01 09:09:14;;;;;;;8.55;6.00;;;13.80;99.90;;;12.83;78.92;99962.75;4976677;28;20026;-78
2022/10/01 09:12:09;;;;;;;12.43;5.38;;;13.80;99.90;;;12.91;79.33;99966.59;4976330;28;20372;-80
2022/10/01 09:15:16;;;;;;;9.98;5.15;;;13.90;99.90;;;12.99;79.10;99967.84;4966249;28;20050;-79
2022/10/01 09:17:58;;;;;;;10.07;5.10;;;13.90;99.90;;;13.01;78.21;99952.72;4972895;28;20039;-79
2022/10/01 09:21:23;;;;;;;11.13;4.95;;;14.10;99.90;;;13.39;78.68;99959.78;4972581;28;20031;-79
2022/10/01 09:24:42;;;;;;;8.35;4.60;;;14.40;99.90;;;13.78;77.56;99952.63;4973959;28;20491;-78
2022/10/01 09:27:24;;;;;;;8.73;5.18;;;14.70;99.90;;;14.04;76.33;99951.59;4971749;28;20042;-80
2022/10/01 09:30:12;;;;;;;10.27;5.20;;;14.90;99.90;;;14.21;75.26;99946.84;4965096;28;20073;-80
2022/10/01 09:33:47;;;;;;;7.32;4.70;;;15.10;99.90;;;14.31;73.36;99938.09;4940940;28;20039;-80
2022/10/01 09:36:36;;;;;;;8.57;5.00;;;15.20;99.90;;;14.43;74.32;99935.50;4937106;28;20055;-78
2022/10/01 09:39:24;;;;;;;11.43;4.78;;;15.20;99.90;;;14.22;73.80;99940.59;4967405;28;20065;-80
2022/10/01 09:41:58;;;;;;;8.35;4.65;;;15.20;99.90;;;14.23;74.11;99937.81;4953458;28;20079;-80
2022/10/01 09:44:36;;;;;;;8.98;4.85;;;15.20;99.90;;;14.15;74.26;99942.84;4954526;28;20538;-81
2022/10/01 09:47:17;;;;;;;12.90;4.90;;;15.20;99.90;;;14.16;74.50;99952.47;4968485;28;20046;-79
2022/10/01 09:49:43;;;;;;;8.32;4.90;;;15.10;99.90;;;14.14;75.07;99936.69;4974691;28;20487;-80
2022/10/01 09:52:36;;;;;;;8.07;4.22;;;15.10;99.90;;;14.08;74.96;99928.34;4957908;28;20045;-80
2022/10/01 09:55:10;;;;;;;8.15;4.30;;;15.10;99.90;;;14.16;74.61;99921.53;4972096;28;20499;-79
2022/10/01 09:57:46;;;;;;;10.43;4.38;;;15.20;99.90;;;14.39;74.87;99932.22;4963120;28;20039;-79
2022/10/01 10:00:37;;;;;;;9.82;4.22;;;15.30;99.90;;;14.47;73.93;99923.69;4973438;28;20439;-79
2022/10/01 10:03:07;;;;;;;10.07;5.00;;;15.40;99.90;;;14.61;73.67;99922.69;4937668;28;20027;-79
2022/10/01 10:05:48;;;;;;;8.93;3.78;;;15.40;99.90;;;14.58;72.45;99915.81;4963943;28;20031;-79
2022/10/01 10:08:38;;;;;;;7.90;4.38;;;15.50;99.90;;;14.53;73.10;99913.47;4958103;28;20031;-81
2022/10/01 10:11:10;;;;;;;7.00;3.55;;;15.40;99.90;;;14.52;72.96;99918.91;4970834;28;20051;-78
2022/10/01 10:13:48;;;;;;;9.15;3.58;;;15.50;99.90;;;14.53;73.37;99910.81;4955808;28;20603;-77
2022/10/01 10:16:37;;;;;;;6.47;3.45;;;15.50;99.90;;;14.56;73.13;99918.59;4966383;28;20037;-79
2022/10/01 10:19:21;;;;;;;9.65;3.38;;;15.50;99.90;;;14.52;73.40;99909.16;4973856;28;20077;-78
2022/10/01 10:21:56;;;;;;;7.13;3.30;;;15.40;99.90;;;14.35;72.71;99912.22;4973302;28;20656;-77
2022/10/01 10:24:36;;;;;;;8.90;3.40;;;15.30;99.90;;;14.29;73.13;99899.44;4957070;28;20093;-79
2022/10/01 10:27:32;;;;;;;4.93;3.20;;;15.30;99.90;;;14.24;72.60;99901.59;4955741;28;20108;-78
2022/10/01 10:30:22;;;;;;;7.95;3.05;;;15.20;99.90;;;14.15;72.57;99901.34;4954058;28;20047;-80
2022/10/01 10:33:05;;;;;;;8.55;3.00;;;15.10;99.90;;;13.99;73.69;99892.81;4974607;28;20059;-79
2022/10/01 10:35:34;;;;;;;5.63;3.05;;;15.10;99.90;;;13.87;73.60;99896.41;4973467;28;20023;-79
2022/10/01 10:38:04;;;;;;;5.70;2.80;;;15.00;99.90;;;13.75;73.98;99892.84;4973243;28;20105;-80
2022/10/01 10:40:40;;;;;;;5.22;2.85;;;14.80;99.90;;;13.57;74.37;99883.63;4970014;28;20041;-79
2022/10/01 10:43:24;;;;;;;4.10;2.67;;;14.70;99.90;;;13.42;75.14;99893.50;4956233;28;20050;-79
2022/10/01 10:45:57;;;;;;;11.20;3.28;;;14.60;99.90;;;13.36;75.99;99888.63;4958332;28;20031;-79